createdAt,value
2023-01-01T00:01:34.419Z,97.65
2023-01-01T00:03:51.449Z,97.25
2023-01-01T00:06:08.623Z,95.96
2023-01-01T00:08:26.935Z,97.56
2023-01-01T00:10:44.084Z,97.13
2023-01-01T00:13:01.312Z,97.22
2023-01-01T00:15:18.618Z,96.58
2023-01-01T00:17:35.973Z,96.60
2023-01-01T00:19:54.379Z,96.38
2023-01-01T00:22:52.094Z,97.12
2023-01-01T00:24:48.723Z,96.23
2023-01-01T00:27:06.110Z,97.32
2023-01-01T00:29:23.240Z,97.13
2023-01-01T00:31:40.325Z,97.62
2023-01-01T00:33:58.241Z,97.45
2023-01-01T00:36:15.683Z,96.65
2023-01-01T00:38:32.790Z,97.13
2023-01-01T00:40:49.693Z,98.52
2023-01-01T00:43:06.631Z,97.83
2023-01-01T00:45:24.873Z,97.40
2023-01-01T00:47:42.782Z,97.16
2023-01-01T00:50:00.187Z,97.25
2023-01-01T00:52:17.273Z,97.36
2023-01-01T00:54:34.591Z,97.58
2023-01-01T00:56:51.628Z,99.13
2023-01-01T00:59:08.570Z,98.92
2023-01-01T01:01:25.957Z,99.17
2023-01-01T01:03:43.963Z,99.15
2023-01-01T01:06:01.359Z,98.04
2023-01-01T01:08:18.287Z,98.29
2023-01-01T01:10:38.379Z,99.70
2023-01-01T01:12:55.745Z,99.79
2023-01-01T01:15:12.987Z,100.00
2023-01-01T01:17:30.411Z,100.00
2023-01-01T01:19:47.323Z,100.00
2023-01-01T01:22:04.646Z,100.00
2023-01-01T01:24:22.689Z,100.00
2023-01-01T01:26:39.973Z,100.00
2023-01-01T01:28:58.246Z,100.00
2023-01-01T01:31:15.263Z,100.00
2023-01-01T01:33:32.434Z,99.13
2023-01-01T01:35:49.456Z,98.37
2023-01-01T01:38:06.777Z,98.06
2023-01-01T01:40:25.003Z,97.85
2023-01-01T01:42:42.334Z,98.24
2023-01-01T01:44:59.359Z,97.32
2023-01-01T01:47:17.664Z,96.90
2023-01-01T01:49:34.653Z,97.24
2023-01-01T01:51:52.846Z,96.65
2023-01-01T01:54:10.160Z,97.97
2023-01-01T01:56:28.262Z,97.78
2023-01-01T01:58:45.538Z,96.73
2023-01-01T02:01:02.846Z,97.99
2023-01-01T02:03:20.366Z,97.30
2023-01-01T02:05:38.561Z,98.28
2023-01-01T02:07:55.697Z,98.84
2023-01-01T02:10:13.075Z,98.81
2023-01-01T02:12:30.170Z,97.34
2023-01-01T02:14:47.060Z,98.45
2023-01-01T02:17:04.099Z,97.53
2023-01-01T02:19:21.185Z,98.41
2023-01-01T02:21:38.243Z,96.57
2023-01-01T02:23:55.353Z,96.98
2023-01-01T02:26:12.433Z,97.43
2023-01-01T02:28:33.020Z,96.83
2023-01-01T02:30:50.382Z,97.25
2023-01-01T02:33:07.518Z,98.54
2023-01-01T02:35:24.523Z,98.14
2023-01-01T02:37:41.624Z,98.26
2023-01-01T02:39:58.996Z,98.05
2023-01-01T02:42:17.352Z,97.79
2023-01-01T02:44:35.364Z,98.69
2023-01-01T02:46:52.389Z,97.28
2023-01-01T02:49:10.812Z,97.37
2023-01-01T02:51:27.947Z,97.76
2023-01-01T02:53:45.201Z,97.80
2023-01-01T02:56:02.542Z,98.25
2023-01-01T02:58:19.547Z,96.94
2023-01-01T03:00:37.663Z,98.01
2023-01-01T03:02:56.072Z,96.75
2023-01-01T03:05:13.356Z,98.19
2023-01-01T03:07:30.704Z,97.32
2023-01-01T03:09:48.033Z,98.50
2023-01-01T03:12:05.363Z,98.18
2023-01-01T03:14:22.681Z,97.95
2023-01-01T03:16:40.672Z,98.58
2023-01-01T03:18:57.693Z,98.22
2023-01-01T03:23:31.784Z,98.28
2023-01-01T03:25:48.953Z,98.62
2023-01-01T03:28:05.897Z,98.29
2023-01-01T03:30:22.962Z,98.03
2023-01-01T03:32:40.309Z,97.92
2023-01-01T03:34:59.126Z,98.13
2023-01-01T03:37:16.071Z,97.76
2023-01-01T03:39:33.005Z,98.19
2023-01-01T03:41:50.130Z,98.65
2023-01-01T03:44:07.195Z,99.73
2023-01-01T03:46:24.520Z,99.48
2023-01-01T03:48:41.575Z,99.45
2023-01-01T03:50:59.569Z,99.51
2023-01-01T03:53:16.931Z,98.95
2023-01-01T03:55:33.845Z,98.36
2023-01-01T03:57:50.793Z,98.53
2023-01-01T04:00:08.827Z,98.44
2023-01-01T04:02:25.989Z,99.00
2023-01-01T04:04:43.366Z,98.45
2023-01-01T04:07:14.282Z,98.42
2023-01-01T04:09:32.327Z,98.91
2023-01-01T04:11:50.398Z,98.91
2023-01-01T04:14:07.618Z,98.27
2023-01-01T04:16:24.683Z,98.53
2023-01-01T04:18:41.801Z,99.08
2023-01-01T04:21:00.037Z,99.25
2023-01-01T04:23:16.996Z,98.53
2023-01-01T04:25:34.026Z,99.25
2023-01-01T04:27:51.292Z,98.39
2023-01-01T04:30:08.271Z,98.23
2023-01-01T04:32:25.574Z,97.85
2023-01-01T04:34:42.926Z,98.54
2023-01-01T04:37:01.004Z,98.53
2023-01-01T04:39:18.090Z,98.68
2023-01-01T04:41:35.429Z,98.94
2023-01-01T04:43:52.456Z,98.63
2023-01-01T04:46:09.681Z,99.33
2023-01-01T04:48:27.010Z,97.85
2023-01-01T04:50:45.299Z,97.98
2023-01-01T04:53:03.405Z,98.04
2023-01-01T04:55:21.718Z,98.39
2023-01-01T04:57:38.952Z,98.60
2023-01-01T04:59:56.218Z,98.69
2023-01-01T05:02:14.743Z,98.60
2023-01-01T05:04:31.930Z,98.84
2023-01-01T05:06:48.933Z,99.02
2023-01-01T05:09:05.965Z,98.38
2023-01-01T05:11:24.394Z,98.97
2023-01-01T05:13:41.380Z,98.64
2023-01-01T05:15:58.656Z,98.18
2023-01-01T05:18:15.715Z,98.95
2023-01-01T05:20:32.830Z,98.77
2023-01-01T05:22:49.923Z,98.69
2023-01-01T05:25:10.069Z,98.77
2023-01-01T05:27:27.066Z,98.77
2023-01-01T05:29:44.342Z,98.80
2023-01-01T05:32:01.751Z,98.66
2023-01-01T05:34:19.091Z,98.56
2023-01-01T05:36:37.357Z,99.12
2023-01-01T05:38:54.271Z,98.60
2023-01-01T05:41:11.322Z,98.66
2023-01-01T05:43:28.548Z,98.45
2023-01-01T05:45:45.836Z,98.42
2023-01-01T05:48:02.874Z,98.50
2023-01-01T05:50:20.164Z,98.71
2023-01-01T05:52:38.071Z,98.82
2023-01-01T05:54:55.112Z,98.78
2023-01-01T05:57:12.419Z,99.09
2023-01-01T05:59:29.762Z,98.91
2023-01-01T06:01:46.723Z,98.82
2023-01-01T06:04:03.977Z,99.28
2023-01-01T06:06:21.977Z,99.12
2023-01-01T06:08:39.531Z,99.42
2023-01-01T06:10:56.749Z,99.11
2023-01-01T06:13:13.822Z,99.54
2023-01-01T06:15:30.904Z,99.22
2023-01-01T06:17:48.935Z,99.42
2023-01-01T06:20:05.996Z,99.29
2023-01-01T06:22:23.022Z,99.27
2023-01-01T06:24:40.275Z,99.32
2023-01-01T06:26:57.297Z,99.08
2023-01-01T06:29:14.297Z,99.03
2023-01-01T06:31:35.509Z,99.76
2023-01-01T06:33:57.657Z,99.45
2023-01-01T06:36:14.979Z,99.75
2023-01-01T06:38:31.916Z,99.55
2023-01-01T06:40:49.129Z,99.65
2023-01-01T06:43:06.363Z,98.83
2023-01-01T06:45:24.398Z,99.49
2023-01-01T06:47:41.393Z,99.08
2023-01-01T06:49:58.443Z,99.40
2023-01-01T06:52:15.425Z,99.03
2023-01-01T06:54:32.505Z,99.07
2023-01-01T06:56:50.531Z,98.61
2023-01-01T06:59:07.423Z,98.80
2023-01-01T07:01:24.414Z,98.73
2023-01-01T07:03:41.604Z,98.55
2023-01-01T07:05:58.642Z,98.77
2023-01-01T07:08:16.596Z,98.68
2023-01-01T07:10:33.847Z,98.46
2023-01-01T07:12:50.780Z,98.61
2023-01-01T07:15:07.963Z,98.76
2023-01-01T07:17:25.246Z,98.89
2023-01-01T07:19:42.239Z,99.26
2023-01-01T07:21:59.327Z,99.39
2023-01-01T07:24:16.357Z,99.63
2023-01-01T07:26:33.460Z,99.92
2023-01-01T07:28:50.541Z,99.92
2023-01-01T07:31:07.826Z,100.00
2023-01-01T07:33:25.496Z,99.70
2023-01-01T07:35:42.587Z,99.75
2023-01-01T07:37:59.822Z,99.51
2023-01-01T07:40:16.870Z,99.33
2023-01-01T07:42:34.908Z,99.49
2023-01-01T07:44:52.240Z,99.54
2023-01-01T07:47:09.309Z,99.45
2023-01-01T07:49:26.455Z,99.52
2023-01-01T07:51:43.832Z,99.13
2023-01-01T07:54:06.134Z,99.21
2023-01-01T07:56:25.540Z,99.01
2023-01-01T07:58:42.608Z,99.25
2023-01-01T08:01:00.069Z,99.52
2023-01-01T08:03:17.286Z,99.12
2023-01-01T08:05:34.267Z,99.05
2023-01-01T08:07:53.649Z,99.53
2023-01-01T08:10:10.646Z,99.08
2023-01-01T08:12:29.800Z,99.38
2023-01-01T08:14:47.018Z,99.61
2023-01-01T08:17:04.049Z,99.83
2023-01-01T08:19:21.040Z,100.00
2023-01-01T08:21:38.037Z,100.00
2023-01-01T08:23:55.006Z,100.00
2023-01-01T08:26:11.989Z,100.00
2023-01-01T08:28:29.036Z,100.00
2023-01-01T08:30:46.324Z,100.00
2023-01-01T08:33:03.538Z,100.00
2023-01-01T08:35:20.839Z,99.94
2023-01-01T08:37:37.901Z,100.00
2023-01-01T08:39:55.146Z,100.00
2023-01-01T08:42:12.806Z,100.00
2023-01-01T08:44:30.161Z,100.00
2023-01-01T08:46:47.209Z,100.00
2023-01-01T08:49:05.310Z,100.00
2023-01-01T08:51:22.588Z,100.00
2023-01-01T08:53:42.987Z,100.00
2023-01-01T08:56:02.805Z,100.00
2023-01-01T08:58:19.826Z,100.00
2023-01-01T09:00:37.080Z,100.00
2023-01-01T09:02:54.536Z,100.00
2023-01-01T09:05:11.523Z,100.00
2023-01-01T09:07:28.589Z,100.00
2023-01-01T09:09:45.828Z,100.00
2023-01-01T09:12:04.314Z,100.00
2023-01-01T09:14:21.484Z,100.00
2023-01-01T09:16:43.906Z,100.00
2023-01-01T09:19:01.287Z,100.00
2023-01-01T09:21:19.524Z,100.00
2023-01-01T09:23:36.532Z,100.00
2023-01-01T09:25:53.433Z,100.00
2023-01-01T09:28:11.681Z,100.00
2023-01-01T09:30:28.986Z,100.00
2023-01-01T09:32:46.245Z,100.00
2023-01-01T09:35:04.111Z,100.00
2023-01-01T09:37:21.392Z,100.00
2023-01-01T09:39:38.506Z,100.00
2023-01-01T09:41:55.429Z,100.00
2023-01-01T09:44:12.445Z,100.00
2023-01-01T09:46:31.933Z,100.00
2023-01-01T09:48:49.214Z,100.00
2023-01-01T09:51:07.290Z,95.33
2023-01-01T09:53:24.223Z,95.83
2023-01-01T09:55:41.186Z,96.42
2023-01-01T09:57:58.163Z,94.60
2023-01-01T10:00:15.191Z,93.70
2023-01-01T10:02:32.124Z,91.25
2023-01-01T10:04:50.359Z,90.76
2023-01-01T10:07:07.431Z,91.05
2023-01-01T10:09:24.427Z,87.78
2023-01-01T10:11:42.473Z,88.78
2023-01-01T10:13:59.544Z,87.99
2023-01-01T10:16:23.713Z,89.52
2023-01-01T10:18:41.612Z,86.38
2023-01-01T10:20:59.049Z,84.04
2023-01-01T10:23:16.091Z,86.73
2023-01-01T10:25:33.341Z,88.49
2023-01-01T10:27:53.985Z,88.19
2023-01-01T10:30:16.014Z,88.20
2023-01-01T10:32:32.965Z,86.20
2023-01-01T10:34:49.986Z,85.60
2023-01-01T10:37:06.920Z,85.17
2023-01-01T10:39:24.221Z,84.81
2023-01-01T10:41:41.243Z,84.34
2023-01-01T10:43:58.264Z,81.88
2023-01-01T10:46:15.219Z,85.11
2023-01-01T10:48:32.639Z,85.77
2023-01-01T10:50:49.939Z,85.14
2023-01-01T10:53:07.018Z,85.46
2023-01-01T10:55:25.015Z,84.72
2023-01-01T10:57:43.411Z,87.39
2023-01-01T11:00:01.766Z,89.29
2023-01-01T11:02:18.874Z,86.52
2023-01-01T11:04:35.766Z,85.12
2023-01-01T11:06:53.756Z,83.15
2023-01-01T11:09:10.825Z,85.57
2023-01-01T11:11:28.909Z,84.33
2023-01-01T11:13:45.934Z,84.42
2023-01-01T11:16:04.036Z,85.14
2023-01-01T11:18:21.009Z,87.80
2023-01-01T11:20:40.077Z,81.61
2023-01-01T11:22:57.330Z,81.83
2023-01-01T11:25:15.063Z,85.29
2023-01-01T11:27:32.247Z,84.97
2023-01-01T11:29:49.374Z,81.77
2023-01-01T11:32:06.758Z,83.02
2023-01-01T11:34:23.742Z,82.27
2023-01-01T11:36:40.761Z,80.72
2023-01-01T11:38:58.208Z,80.31
2023-01-01T11:41:15.244Z,80.14
2023-01-01T11:43:32.174Z,80.85
2023-01-01T11:45:49.167Z,79.75
2023-01-01T11:48:07.294Z,79.83
2023-01-01T11:50:24.408Z,78.83
2023-01-01T11:52:41.682Z,79.39
2023-01-01T11:54:58.748Z,79.71
2023-01-01T11:57:15.763Z,77.09
2023-01-01T11:59:33.050Z,77.70
2023-01-01T12:01:50.114Z,78.91
2023-01-01T12:04:10.786Z,77.05
2023-01-01T12:06:28.173Z,79.16
2023-01-01T12:08:46.500Z,78.34
2023-01-01T12:11:03.455Z,75.57
2023-01-01T12:13:20.480Z,77.48
2023-01-01T12:15:37.531Z,78.46
2023-01-01T12:17:54.485Z,79.97
2023-01-01T12:20:12.120Z,77.92
2023-01-01T12:22:29.080Z,78.88
2023-01-01T12:24:46.188Z,79.68
2023-01-01T12:27:10.282Z,79.52
2023-01-01T12:29:28.178Z,81.17
2023-01-01T12:31:46.178Z,80.12
2023-01-01T12:34:03.181Z,79.42
2023-01-01T12:36:21.587Z,77.13
2023-01-01T12:38:38.862Z,79.26
2023-01-01T12:40:57.197Z,76.54
2023-01-01T12:43:14.570Z,80.14
2023-01-01T12:48:07.071Z,79.29
2023-01-01T12:50:25.174Z,78.57
2023-01-01T12:52:44.585Z,77.77
2023-01-01T12:55:01.849Z,78.16
2023-01-01T12:57:20.126Z,77.89
2023-01-01T12:59:37.172Z,78.22
2023-01-01T13:01:54.598Z,78.07
2023-01-01T13:04:12.946Z,78.41
2023-01-01T13:06:30.065Z,77.74
2023-01-01T13:08:47.145Z,76.01
2023-01-01T13:11:05.194Z,76.92
2023-01-01T13:13:22.114Z,76.46
2023-01-01T13:15:39.504Z,76.85
2023-01-01T13:17:56.917Z,76.55
2023-01-01T13:20:14.042Z,77.07
2023-01-01T13:22:32.154Z,78.04
2023-01-01T13:24:50.240Z,79.54
2023-01-01T13:27:09.075Z,79.33
2023-01-01T13:29:28.802Z,79.33
2023-01-01T13:31:45.775Z,77.70
2023-01-01T13:34:02.994Z,77.63
2023-01-01T13:36:19.990Z,77.02
2023-01-01T13:38:37.379Z,77.88
2023-01-01T13:40:54.673Z,77.22
2023-01-01T13:43:13.757Z,76.79
2023-01-01T13:46:09.982Z,76.44
2023-01-01T13:48:08.123Z,77.66
2023-01-01T13:50:25.115Z,77.21
2023-01-01T13:52:42.201Z,79.12
2023-01-01T13:54:59.148Z,79.75
2023-01-01T13:57:16.079Z,78.92
2023-01-01T13:59:33.152Z,76.96
2023-01-01T14:01:50.569Z,76.69
2023-01-01T14:04:07.809Z,77.04
2023-01-01T14:06:24.872Z,78.22
2023-01-01T14:08:42.081Z,79.26
2023-01-01T14:10:59.214Z,78.20
2023-01-01T14:13:16.246Z,77.71
2023-01-01T14:15:33.238Z,78.07
2023-01-01T14:17:50.316Z,78.49
2023-01-01T14:20:07.292Z,78.67
2023-01-01T14:22:25.380Z,79.45
2023-01-01T14:24:42.687Z,79.06
2023-01-01T14:26:59.728Z,78.57
2023-01-01T14:29:16.996Z,79.98
2023-01-01T14:31:37.313Z,80.52
2023-01-01T14:33:54.422Z,79.90
2023-01-01T14:36:11.909Z,81.41
2023-01-01T14:38:30.153Z,79.43
2023-01-01T14:40:47.186Z,79.91
2023-01-01T14:43:04.480Z,80.82
2023-01-01T14:45:21.511Z,81.54
2023-01-01T14:47:38.626Z,81.45
2023-01-01T14:49:55.689Z,81.00
2023-01-01T14:52:13.028Z,81.01
2023-01-01T14:54:30.071Z,81.84
2023-01-01T14:56:47.033Z,81.43
2023-01-01T14:59:04.346Z,81.47
2023-01-01T15:01:21.844Z,83.27
2023-01-01T15:03:38.963Z,83.71
2023-01-01T15:05:55.981Z,85.47
2023-01-01T15:08:13.600Z,85.68
2023-01-01T15:10:30.979Z,85.88
2023-01-01T15:12:48.011Z,86.63
2023-01-01T15:15:06.420Z,87.71
2023-01-01T15:17:23.922Z,88.07
2023-01-01T15:19:41.278Z,89.12
2023-01-01T15:21:59.387Z,89.33
2023-01-01T15:24:16.651Z,89.90
2023-01-01T15:26:33.671Z,90.86
2023-01-01T15:28:50.727Z,91.97
2023-01-01T15:31:07.994Z,90.92
2023-01-01T15:33:24.992Z,91.55
2023-01-01T15:35:42.199Z,92.14
2023-01-01T15:37:59.244Z,91.80
2023-01-01T15:40:16.251Z,91.99
2023-01-01T15:42:33.362Z,93.07
2023-01-01T15:44:50.434Z,93.33
2023-01-01T15:47:07.670Z,93.94
2023-01-01T15:49:24.704Z,93.84
2023-01-01T15:51:42.047Z,94.11
2023-01-01T15:53:59.074Z,94.07
2023-01-01T15:56:16.451Z,94.02
2023-01-01T15:58:33.474Z,94.54
2023-01-01T16:00:50.603Z,94.58
2023-01-01T16:03:07.950Z,94.68
2023-01-01T16:05:25.437Z,94.87
2023-01-01T16:07:42.708Z,95.02
2023-01-01T16:09:59.988Z,94.86
2023-01-01T16:12:17.035Z,95.22
2023-01-01T16:14:34.304Z,95.43
2023-01-01T16:16:51.859Z,95.55
2023-01-01T16:19:08.946Z,95.46
2023-01-01T16:21:27.299Z,95.86
2023-01-01T16:23:44.319Z,95.85
2023-01-01T16:26:05.390Z,95.86
2023-01-01T16:28:22.702Z,96.13
2023-01-01T16:30:39.996Z,96.65
2023-01-01T16:32:58.051Z,96.48
2023-01-01T16:35:15.090Z,96.53
2023-01-01T16:37:32.384Z,96.49
2023-01-01T16:39:49.714Z,96.73
2023-01-01T16:42:07.729Z,96.71
2023-01-01T16:44:24.790Z,96.66
2023-01-01T16:46:42.309Z,97.06
2023-01-01T16:48:59.511Z,97.17
2023-01-01T16:51:16.777Z,96.68
2023-01-01T16:53:33.822Z,96.69
2023-01-01T16:55:51.240Z,97.17
2023-01-01T16:58:47.537Z,96.68
2023-01-01T17:00:45.991Z,97.12
2023-01-01T17:03:03.323Z,97.18
2023-01-01T17:05:20.616Z,96.78
2023-01-01T17:07:37.575Z,96.94
2023-01-01T17:09:56.782Z,96.39
2023-01-01T17:12:14.019Z,97.83
2023-01-01T17:14:31.387Z,98.03
2023-01-01T17:16:48.774Z,96.66
2023-01-01T17:19:15.041Z,97.03
2023-01-01T17:21:34.422Z,97.44
2023-01-01T17:23:51.749Z,97.77
2023-01-01T17:26:09.074Z,97.57
2023-01-01T17:28:26.018Z,97.88
2023-01-01T17:30:43.376Z,97.75
2023-01-01T17:33:01.687Z,97.99
2023-01-01T17:35:18.650Z,98.04
2023-01-01T17:37:35.592Z,97.80
2023-01-01T17:39:52.536Z,97.70
2023-01-01T17:42:09.875Z,97.68
2023-01-01T17:44:26.902Z,97.77
2023-01-01T17:46:44.752Z,97.55
2023-01-01T17:49:02.283Z,96.34
2023-01-01T17:51:19.469Z,97.20
2023-01-01T17:53:36.478Z,97.13
2023-01-01T17:55:54.433Z,97.47
2023-01-01T17:58:11.437Z,97.09
2023-01-01T18:00:28.784Z,96.29
2023-01-01T18:02:46.101Z,96.67
2023-01-01T18:05:03.072Z,97.09
2023-01-01T18:07:20.076Z,96.58
2023-01-01T18:09:37.129Z,97.36
2023-01-01T18:11:54.350Z,96.22
2023-01-01T18:14:11.463Z,97.63
2023-01-01T18:16:28.550Z,96.50
2023-01-01T18:18:46.096Z,96.96
2023-01-01T18:21:03.430Z,98.24
2023-01-01T18:23:20.795Z,96.99
2023-01-01T18:25:37.771Z,97.68
2023-01-01T18:27:57.630Z,97.24
2023-01-01T18:30:14.804Z,97.27
2023-01-01T18:32:32.036Z,98.38
2023-01-01T18:34:49.143Z,97.36
2023-01-01T18:37:06.082Z,97.45
2023-01-01T18:39:23.229Z,97.83
2023-01-01T18:41:40.379Z,98.04
2023-01-01T18:43:57.423Z,98.25
2023-01-01T18:46:14.819Z,99.21
2023-01-01T18:48:31.950Z,98.14
2023-01-01T18:50:48.920Z,97.85
2023-01-01T18:53:05.888Z,98.12
2023-01-01T18:55:23.263Z,98.58
2023-01-01T18:57:40.724Z,97.62
2023-01-01T18:59:57.742Z,97.97
2023-01-01T19:02:15.101Z,98.67
2023-01-01T19:04:32.658Z,98.23
2023-01-01T19:06:49.969Z,98.09
2023-01-01T19:09:07.068Z,97.96
2023-01-01T19:11:24.369Z,99.58
2023-01-01T19:13:41.731Z,98.34
2023-01-01T19:15:59.388Z,98.21
2023-01-01T19:18:16.409Z,99.00
2023-01-01T19:20:33.480Z,99.34
2023-01-01T19:22:50.679Z,98.46
2023-01-01T19:25:08.191Z,98.33
2023-01-01T19:27:25.512Z,98.42
2023-01-01T19:29:42.606Z,99.46
2023-01-01T19:31:59.617Z,99.09
2023-01-01T19:34:17.917Z,99.23
2023-01-01T19:36:35.269Z,98.57
2023-01-01T19:38:55.542Z,100.00
2023-01-01T19:41:13.033Z,99.71
2023-01-01T19:43:30.257Z,98.45
2023-01-01T19:45:47.528Z,98.58
2023-01-01T19:48:04.603Z,97.91
2023-01-01T19:50:21.756Z,97.81
2023-01-01T19:52:40.196Z,99.57
2023-01-01T19:54:57.960Z,99.07
2023-01-01T19:57:15.032Z,98.31
2023-01-01T19:59:33.845Z,97.92
2023-01-01T20:02:17.741Z,97.99
2023-01-01T20:04:28.470Z,99.10
2023-01-01T20:06:45.838Z,98.20
2023-01-01T20:09:03.875Z,98.04
2023-01-01T20:11:21.228Z,97.96
2023-01-01T20:13:39.527Z,97.46
2023-01-01T20:15:56.921Z,97.70
2023-01-01T20:18:13.997Z,98.38
2023-01-01T20:20:31.926Z,97.78
2023-01-01T20:22:49.327Z,99.14
2023-01-01T20:25:07.710Z,97.85
2023-01-01T20:27:24.858Z,99.46
2023-01-01T20:29:41.919Z,98.84
2023-01-01T20:31:59.240Z,99.52
2023-01-01T20:34:16.604Z,99.52
2023-01-01T20:36:33.929Z,99.54
2023-01-01T20:38:51.002Z,99.11
2023-01-01T20:41:08.094Z,99.44
2023-01-01T20:43:25.348Z,99.40
2023-01-01T20:45:42.513Z,98.59
2023-01-01T20:47:59.457Z,99.67
2023-01-01T20:50:16.797Z,99.19
2023-01-01T20:52:34.977Z,99.71
2023-01-01T20:54:52.012Z,98.17
2023-01-01T20:57:09.325Z,98.22
2023-01-01T20:59:41.457Z,98.10
2023-01-01T21:01:58.873Z,97.74
2023-01-01T21:04:16.267Z,97.92
2023-01-01T21:06:33.494Z,98.19
2023-01-01T21:08:51.875Z,97.75
2023-01-01T21:11:08.854Z,97.96
2023-01-01T21:13:28.008Z,99.16
2023-01-01T21:15:44.992Z,98.97
2023-01-01T21:18:01.975Z,98.68
2023-01-01T21:20:18.896Z,98.33
2023-01-01T21:22:36.221Z,98.61
2023-01-01T21:24:54.761Z,99.62
2023-01-01T21:27:13.849Z,99.39
2023-01-01T21:29:30.820Z,98.56
2023-01-01T21:31:47.902Z,99.46
2023-01-01T21:34:05.256Z,98.20
2023-01-01T21:36:22.256Z,97.84
2023-01-01T21:38:39.780Z,97.69
2023-01-01T21:40:57.236Z,97.75
2023-01-01T21:43:14.549Z,98.26
2023-01-01T21:45:31.489Z,98.59
2023-01-01T21:47:48.799Z,97.71
2023-01-01T21:50:05.850Z,97.41
2023-01-01T21:52:22.838Z,98.72
2023-01-01T21:54:40.018Z,97.97
2023-01-01T21:56:56.961Z,97.68
2023-01-01T21:59:14.825Z,98.19
2023-01-01T22:01:32.026Z,97.99
2023-01-01T22:03:49.181Z,99.09
2023-01-01T22:06:06.062Z,99.41
2023-01-01T22:08:23.115Z,98.14
2023-01-01T22:10:40.177Z,98.49
2023-01-01T22:12:57.200Z,98.25
2023-01-01T22:15:15.240Z,99.52
2023-01-01T22:17:37.065Z,98.18
2023-01-01T22:19:54.692Z,98.93
2023-01-01T22:22:11.937Z,98.11
2023-01-01T22:24:29.069Z,99.38
2023-01-01T22:26:47.151Z,98.97
2023-01-01T22:29:04.234Z,98.19
2023-01-01T22:31:21.353Z,99.15
2023-01-01T22:33:38.725Z,98.34
2023-01-01T22:35:57.084Z,98.85
2023-01-01T22:38:15.172Z,97.84
2023-01-01T22:40:32.413Z,99.23
2023-01-01T22:42:49.787Z,99.26
2023-01-01T22:45:06.889Z,98.43
2023-01-01T22:47:23.821Z,98.61
2023-01-01T22:49:41.111Z,99.21
2023-01-01T22:51:58.453Z,99.20
2023-01-01T22:54:15.625Z,99.31
2023-01-01T22:56:32.675Z,99.05
2023-01-01T22:58:56.531Z,99.31
2023-01-01T23:01:15.466Z,98.26
2023-01-01T23:03:35.076Z,98.33
2023-01-01T23:05:52.237Z,98.89
2023-01-01T23:08:09.329Z,99.31
2023-01-01T23:10:30.168Z,99.19
2023-01-01T23:12:47.203Z,98.96
2023-01-01T23:15:04.459Z,99.34
2023-01-01T23:17:22.734Z,98.79
2023-01-01T23:19:39.707Z,99.12
2023-01-01T23:21:57.060Z,98.48
2023-01-01T23:24:14.015Z,98.92
2023-01-01T23:26:31.153Z,97.76
2023-01-01T23:28:48.434Z,98.79
2023-01-01T23:31:05.586Z,98.63
2023-01-01T23:33:22.610Z,98.20
2023-01-01T23:35:39.747Z,98.19
2023-01-01T23:37:56.863Z,97.69
2023-01-01T23:40:14.033Z,97.25
2023-01-01T23:42:31.153Z,98.21
2023-01-01T23:44:51.272Z,98.60
2023-01-01T23:47:10.601Z,97.79
2023-01-01T23:49:27.940Z,98.58
2023-01-01T23:51:45.105Z,98.17
2023-01-01T23:54:02.324Z,98.85
2023-01-01T23:56:19.729Z,98.13
2023-01-01T23:58:36.725Z,98.74
